Time;durP1;ratioP1;P1;durP2;ratioP2;P2;SDS_P1;SDS_P2;PMS_P1;PMS_P2;Temp;Humidity;BMP_temperature;BMP_pressure;BME280_temperature;BME280_humidity;BME280_pressure;Samples;Min_cycle;Max_cycle;Signal;HPM_P1;HPM_P2
2021/08/25 00:01:29;;;;;;;9.73;3.70;;;7.60;99.90;;;;;;4411180;28;655276;-73
2021/08/25 00:04:16;;;;;;;7.47;3.07;;;7.60;99.90;;;;;;4430919;28;656023;-74
2021/08/25 00:07:06;;;;;;;9.20;3.70;;;7.60;99.90;;;;;;4409503;28;657005;-74
2021/08/25 00:09:55;;;;;;;6.70;3.50;;;7.60;99.90;;;;;;4409440;28;656411;-73
2021/08/25 00:12:42;;;;;;;11.43;3.50;;;7.60;99.90;;;;;;4413140;28;657246;-73
2021/08/25 00:15:30;;;;;;;6.07;3.10;;;7.60;99.90;;;;;;4430645;28;657449;-74
2021/08/25 00:18:19;;;;;;;8.87;3.50;;;7.60;99.90;;;;;;4403568;28;656125;-73
2021/08/25 00:21:06;;;;;;;7.77;3.30;;;7.60;99.90;;;;;;4436337;28;655839;-73
2021/08/25 00:23:54;;;;;;;6.13;3.03;;;7.60;99.90;;;;;;4413759;28;655403;-73
2021/08/25 00:26:45;;;;;;;5.57;2.73;;;7.60;99.90;;;;;;4436052;28;655952;-73
2021/08/25 00:29:33;;;;;;;8.60;3.80;;;7.60;99.90;;;;;;4413584;28;656003;-73
2021/08/25 00:32:21;;;;;;;8.30;3.30;;;7.60;99.90;;;;;;4423293;28;656048;-73
2021/08/25 00:35:11;;;;;;;7.77;3.70;;;7.50;99.90;;;;;;4399550;28;655818;-74
2021/08/25 00:37:58;;;;;;;11.07;3.30;;;7.50;99.90;;;;;;4406911;28;655683;-73
2021/08/25 00:40:46;;;;;;;6.57;3.60;;;7.40;99.90;;;;;;4434501;28;657065;-74
2021/08/25 00:43:33;;;;;;;10.90;4.00;;;7.40;99.90;;;;;;4412954;28;655586;-73
2021/08/25 00:46:21;;;;;;;7.00;3.30;;;7.40;99.90;;;;;;4434682;28;656617;-73
2021/08/25 00:49:09;;;;;;;9.87;3.50;;;7.50;99.90;;;;;;4410586;28;655994;-73
2021/08/25 00:51:58;;;;;;;10.17;3.57;;;7.40;99.90;;;;;;4430989;28;655492;-73
2021/08/25 00:54:45;;;;;;;6.13;3.27;;;7.30;99.90;;;;;;4410134;28;657614;-73
2021/08/25 00:57:35;;;;;;;8.77;3.63;;;7.30;99.90;;;;;;4413630;28;656576;-73
2021/08/25 01:00:22;;;;;;;8.32;2.70;;;7.30;99.90;;;;;;4418093;28;656349;-73
2021/08/25 01:03:13;;;;;;;6.03;3.00;;;7.30;99.90;;;;;;4433457;28;656463;-73
2021/08/25 01:06:01;;;;;;;7.53;3.33;;;7.20;99.90;;;;;;4407428;28;655462;-73
2021/08/25 01:08:50;;;;;;;9.80;3.67;;;7.20;99.90;;;;;;4411928;28;655969;-73
2021/08/25 01:11:43;;;;;;;13.23;3.50;;;7.20;99.90;;;;;;4415464;28;656056;-73
2021/08/25 01:14:31;;;;;;;9.37;3.60;;;7.20;99.90;;;;;;4409095;28;657476;-73
2021/08/25 01:17:20;;;;;;;8.80;3.67;;;7.20;99.90;;;;;;4415313;28;655546;-73
2021/08/25 01:20:10;;;;;;;11.47;4.03;;;7.20;99.90;;;;;;4416670;28;655692;-73
2021/08/25 01:22:58;;;;;;;14.23;4.23;;;7.10;99.90;;;;;;4413771;28;656874;-73
2021/08/25 01:25:47;;;;;;;10.23;3.90;;;7.10;99.90;;;;;;4433138;28;657022;-73
2021/08/25 01:28:36;;;;;;;8.20;3.60;;;7.20;99.90;;;;;;4403991;28;657292;-73
2021/08/25 01:31:27;;;;;;;10.03;4.10;;;7.10;99.90;;;;;;4411653;28;655723;-74
2021/08/25 01:34:15;;;;;;;11.67;4.10;;;7.10;99.90;;;;;;4414877;28;657502;-73
2021/08/25 01:37:04;;;;;;;8.87;3.77;;;7.10;99.90;;;;;;4412319;28;657030;-73
2021/08/25 01:39:52;;;;;;;9.83;4.00;;;7.10;99.90;;;;;;4438432;28;655101;-74
2021/08/25 01:42:43;;;;;;;13.70;4.33;;;7.10;99.90;;;;;;4411972;28;656014;-73
2021/08/25 01:45:33;;;;;;;10.23;4.50;;;7.10;99.90;;;;;;4414456;28;657212;-73
2021/08/25 01:48:22;;;;;;;11.03;4.03;;;7.10;99.90;;;;;;4409760;28;656839;-74
2021/08/25 01:51:09;;;;;;;10.90;4.30;;;7.10;99.90;;;;;;4409752;28;657941;-73
2021/08/25 01:53:57;;;;;;;10.07;4.00;;;7.10;99.90;;;;;;4433636;28;656959;-74
2021/08/25 01:56:44;;;;;;;12.03;4.67;;;7.10;99.90;;;;;;4414802;28;656755;-73
2021/08/25 01:59:32;;;;;;;7.73;3.90;;;7.10;99.90;;;;;;4423923;28;656344;-74
2021/08/25 02:02:20;;;;;;;11.97;4.60;;;7.10;99.90;;;;;;4436884;28;656464;-73
2021/08/25 02:05:10;;;;;;;15.37;4.13;;;7.10;99.90;;;;;;4407997;28;656738;-73
2021/08/25 02:07:57;;;;;;;7.93;3.40;;;7.10;99.90;;;;;;4413645;28;656697;-74
2021/08/25 02:10:45;;;;;;;8.90;3.47;;;7.10;99.90;;;;;;4432779;28;655876;-74
2021/08/25 02:13:33;;;;;;;14.83;4.33;;;7.10;99.90;;;;;;4415719;28;655961;-73
2021/08/25 02:16:20;;;;;;;7.03;3.33;;;7.10;99.90;;;;;;4418730;28;657431;-73
2021/08/25 02:19:08;;;;;;;10.33;3.80;;;7.10;99.90;;;;;;4414966;28;655785;-73
2021/08/25 02:21:57;;;;;;;9.03;3.90;;;7.10;99.90;;;;;;4422348;28;657681;-74
2021/08/25 02:24:44;;;;;;;10.83;4.13;;;7.10;99.90;;;;;;4414585;28;656587;-74
2021/08/25 02:27:32;;;;;;;18.47;4.57;;;7.10;99.90;;;;;;4420503;28;656949;-73
2021/08/25 02:30:20;;;;;;;10.50;4.27;;;7.00;99.90;;;;;;4432423;28;657686;-73
2021/08/25 02:33:07;;;;;;;10.97;4.60;;;7.10;99.90;;;;;;4405105;28;657156;-73
2021/08/25 02:35:55;;;;;;;10.47;4.53;;;7.10;99.90;;;;;;4430008;28;657620;-73
2021/08/25 02:38:44;;;;;;;13.13;4.17;;;7.00;99.90;;;;;;4412417;28;657111;-73
2021/08/25 02:41:31;;;;;;;8.60;4.17;;;7.10;99.90;;;;;;4431187;28;656179;-74
2021/08/25 02:44:19;;;;;;;12.17;4.27;;;7.00;99.90;;;;;;4416127;28;655692;-73
2021/08/25 02:47:06;;;;;;;16.00;5.47;;;7.10;99.90;;;;;;4431775;28;656384;-73
2021/08/25 02:49:54;;;;;;;10.27;4.90;;;7.10;99.90;;;;;;4414288;28;657464;-73
2021/08/25 02:52:41;;;;;;;11.40;4.90;;;7.10;99.90;;;;;;4432233;28;656404;-74
2021/08/25 02:55:31;;;;;;;8.90;4.27;;;7.10;99.90;;;;;;4400233;28;657857;-74
2021/08/25 02:58:18;;;;;;;10.90;4.67;;;7.10;99.90;;;;;;4403233;28;655959;-73
2021/08/25 03:01:06;;;;;;;11.20;4.27;;;7.10;99.90;;;;;;4426905;28;657029;-74
2021/08/25 03:03:54;;;;;;;10.00;4.20;;;7.10;99.90;;;;;;4409480;28;656636;-73
2021/08/25 03:06:41;;;;;;;11.73;4.37;;;7.10;99.90;;;;;;4432691;28;656766;-74
2021/08/25 03:09:29;;;;;;;10.47;4.00;;;7.10;99.90;;;;;;4412598;28;657529;-74
2021/08/25 03:12:18;;;;;;;12.88;4.30;;;7.10;99.90;;;;;;4431773;28;656349;-73
2021/08/25 03:15:06;;;;;;;10.67;3.77;;;7.10;99.90;;;;;;4412808;28;657806;-73
2021/08/25 03:17:54;;;;;;;11.03;4.73;;;7.00;99.90;;;;;;4413884;28;657161;-73
2021/08/25 03:20:41;;;;;;;10.80;4.67;;;7.10;99.90;;;;;;4435096;28;656164;-73
2021/08/25 03:23:29;;;;;;;12.17;4.53;;;7.10;99.90;;;;;;4411599;28;657933;-73
2021/08/25 03:26:16;;;;;;;11.87;4.83;;;7.10;99.90;;;;;;4425676;28;656717;-73
2021/08/25 03:29:06;;;;;;;12.07;4.60;;;7.20;99.90;;;;;;4409534;28;657494;-73
2021/08/25 03:31:53;;;;;;;10.87;4.90;;;7.20;99.90;;;;;;4405034;28;656851;-73
2021/08/25 03:34:41;;;;;;;9.80;4.33;;;7.20;99.90;;;;;;4430325;28;656952;-74
2021/08/25 03:37:28;;;;;;;9.70;4.13;;;7.30;99.90;;;;;;4413168;28;655930;-74
2021/08/25 03:40:16;;;;;;;10.93;4.40;;;7.30;99.90;;;;;;4432531;28;656486;-74
2021/08/25 03:43:03;;;;;;;9.10;4.43;;;7.40;99.90;;;;;;4411255;28;656188;-73
2021/08/25 03:46:14;;;;;;;15.60;4.73;;;7.40;99.90;;;;;;4436815;28;655430;-74
2021/08/25 03:49:01;;;;;;;10.47;4.10;;;7.50;99.90;;;;;;4409299;28;656748;-74
2021/08/25 03:51:49;;;;;;;12.07;4.00;;;7.60;99.90;;;;;;4393579;28;657802;-74
2021/08/25 03:54:37;;;;;;;11.60;4.20;;;7.70;99.90;;;;;;4420557;28;657052;-74
2021/08/25 03:58:07;;;;;;;17.43;4.93;;;7.70;99.90;;;;;;4407605;28;657393;-73
2021/08/25 04:00:55;;;;;;;10.90;4.03;;;7.70;99.90;;;;;;4407241;28;656451;-73
2021/08/25 04:03:44;;;;;;;13.07;4.97;;;7.80;99.90;;;;;;4412266;28;656623;-74
2021/08/25 04:06:32;;;;;;;14.50;5.37;;;7.90;99.90;;;;;;4430801;28;656415;-73
2021/08/25 04:09:19;;;;;;;9.13;4.27;;;7.90;99.90;;;;;;4408460;28;656954;-74
2021/08/25 04:12:07;;;;;;;14.27;4.50;;;7.90;99.90;;;;;;4436032;28;654859;-74
2021/08/25 04:14:55;;;;;;;8.23;3.43;;;7.90;99.90;;;;;;4407278;28;657170;-74
2021/08/25 04:17:42;;;;;;;9.57;4.10;;;8.00;99.90;;;;;;4413383;28;656055;-74
2021/08/25 04:20:32;;;;;;;10.23;3.73;;;8.10;99.90;;;;;;4428650;28;655906;-73
2021/08/25 04:23:19;;;;;;;8.63;3.83;;;8.10;99.90;;;;;;4408320;28;657921;-73
2021/08/25 04:26:07;;;;;;;8.27;3.67;;;8.20;99.90;;;;;;4425799;28;655697;-73
2021/08/25 04:28:55;;;;;;;8.23;3.67;;;8.30;99.90;;;;;;4431757;28;656339;-74
2021/08/25 04:31:42;;;;;;;9.23;3.90;;;8.30;99.90;;;;;;4406741;28;656568;-73
2021/08/25 04:34:30;;;;;;;7.63;4.00;;;8.40;99.90;;;;;;4431613;28;656758;-73
2021/08/25 04:37:19;;;;;;;9.43;4.70;;;8.50;99.90;;;;;;4413515;28;656401;-73
2021/08/25 04:40:09;;;;;;;12.55;4.18;;;8.60;99.90;;;;;;4426027;28;655867;-74
2021/08/25 04:42:56;;;;;;;10.50;3.90;;;8.60;99.90;;;;;;4412273;28;656761;-75
2021/08/25 04:45:44;;;;;;;7.23;3.70;;;8.70;99.90;;;;;;4412384;28;656755;-74
2021/08/25 04:48:31;;;;;;;12.73;4.23;;;8.70;99.90;;;;;;4436207;28;656554;-74
2021/08/25 04:51:19;;;;;;;15.03;4.50;;;8.80;99.90;;;;;;4412426;28;657771;-74
2021/08/25 04:54:08;;;;;;;10.20;4.47;;;8.90;99.90;;;;;;4435124;28;656747;-74
2021/08/25 04:56:56;;;;;;;10.13;3.83;;;9.00;99.90;;;;;;4412656;28;657198;-73
2021/08/25 04:59:43;;;;;;;9.07;4.50;;;9.10;99.90;;;;;;4405813;28;657438;-73
2021/08/25 05:02:31;;;;;;;10.33;4.40;;;9.20;99.90;;;;;;4432032;28;656738;-74
2021/08/25 05:05:19;;;;;;;11.53;4.63;;;9.30;99.90;;;;;;4408871;28;656608;-74
2021/08/25 05:08:07;;;;;;;10.20;4.50;;;9.40;99.90;;;;;;4426923;28;656849;-74
2021/08/25 05:10:56;;;;;;;11.33;4.67;;;9.40;99.90;;;;;;4406088;28;657132;-74
2021/08/25 05:13:43;;;;;;;10.40;4.33;;;9.50;99.90;;;;;;4411356;28;656884;-74
2021/08/25 05:16:31;;;;;;;11.67;4.43;;;9.60;99.90;;;;;;4430070;28;656369;-74
2021/08/25 05:19:18;;;;;;;7.97;4.03;;;9.80;99.90;;;;;;4406505;28;657557;-74
2021/08/25 05:22:07;;;;;;;7.90;3.90;;;9.90;99.90;;;;;;4435057;28;655155;-74
2021/08/25 05:24:54;;;;;;;10.93;4.67;;;10.00;99.90;;;;;;4408622;28;656026;-74
2021/08/25 05:27:43;;;;;;;11.70;4.83;;;10.10;99.90;;;;;;4433181;28;658076;-73
2021/08/25 05:30:31;;;;;;;11.40;4.40;;;10.30;99.90;;;;;;4409307;28;658020;-74
2021/08/25 05:33:18;;;;;;;11.53;4.37;;;10.40;99.90;;;;;;4402117;28;658398;-74
2021/08/25 05:36:06;;;;;;;14.00;4.97;;;10.50;99.90;;;;;;4428240;28;658426;-74
2021/08/25 05:38:53;;;;;;;9.47;4.17;;;10.50;99.90;;;;;;4408563;28;657682;-74
2021/08/25 05:41:41;;;;;;;13.30;4.37;;;10.60;99.90;;;;;;4429806;28;657037;-75
2021/08/25 05:44:30;;;;;;;10.60;4.63;;;10.70;99.90;;;;;;4407020;28;658292;-74
2021/08/25 05:47:18;;;;;;;9.10;4.40;;;10.80;99.90;;;;;;4396450;28;657151;-74
2021/08/25 05:50:06;;;;;;;13.80;4.88;;;10.90;99.90;;;;;;4424744;28;657319;-74
2021/08/25 05:52:54;;;;;;;10.90;5.23;;;11.00;99.90;;;;;;4407088;28;657566;-74
2021/08/25 05:55:41;;;;;;;11.80;4.67;;;11.10;99.90;;;;;;4427358;28;657406;-73
2021/08/25 05:58:29;;;;;;;10.93;5.23;;;11.20;99.90;;;;;;4408655;28;658640;-74
2021/08/25 06:01:18;;;;;;;11.70;4.87;;;11.10;99.90;;;;;;4431599;28;657895;-74
2021/08/25 06:04:06;;;;;;;10.87;4.93;;;11.20;99.90;;;;;;4403146;28;658773;-74
2021/08/25 06:06:53;;;;;;;13.60;4.87;;;11.40;99.90;;;;;;4404789;28;658641;-74
2021/08/25 06:09:41;;;;;;;11.70;4.83;;;11.40;99.90;;;;;;4430902;28;657711;-74
2021/08/25 06:12:29;;;;;;;10.13;4.70;;;11.60;99.90;;;;;;4413082;28;658118;-74
2021/08/25 06:15:16;;;;;;;12.43;5.47;;;11.60;99.90;;;;;;4434125;28;658196;-74
2021/08/25 06:18:05;;;;;;;13.03;4.93;;;11.80;99.90;;;;;;4413399;28;657818;-74
2021/08/25 06:20:53;;;;;;;11.00;4.90;;;11.90;99.90;;;;;;4410770;28;657850;-73
2021/08/25 06:23:40;;;;;;;12.27;5.20;;;12.10;99.90;;;;;;4425702;28;657613;-73
2021/08/25 06:26:28;;;;;;;11.17;5.03;;;12.30;99.90;;;;;;4405061;28;657851;-73
2021/08/25 06:29:16;;;;;;;10.17;4.30;;;12.40;99.90;;;;;;4426949;28;658800;-73
2021/08/25 06:32:04;;;;;;;15.03;4.80;;;12.50;99.90;;;;;;4406232;28;658085;-73
2021/08/25 06:34:53;;;;;;;14.50;4.90;;;12.60;99.90;;;;;;4430771;28;657985;-73
2021/08/25 06:37:41;;;;;;;8.80;4.60;;;12.70;99.90;;;;;;4409088;28;658384;-73
2021/08/25 06:40:32;;;;;;;9.30;4.83;;;12.70;99.90;;;;;;4410219;28;658103;-72
2021/08/25 06:43:19;;;;;;;10.07;4.83;;;12.90;99.90;;;;;;4409311;28;657520;-72
2021/08/25 06:46:07;;;;;;;9.30;4.67;;;13.00;99.90;;;;;;4429864;28;657149;-72
2021/08/25 06:48:55;;;;;;;12.67;5.40;;;13.10;99.90;;;;;;4437177;28;656977;-72
2021/08/25 06:51:44;;;;;;;11.57;5.00;;;13.20;99.90;;;;;;4412743;28;657406;-71
2021/08/25 06:54:32;;;;;;;12.13;4.97;;;13.30;99.90;;;;;;4431030;28;657765;-72
2021/08/25 06:57:19;;;;;;;14.87;5.53;;;13.20;99.90;;;;;;4412159;28;658140;-71
2021/08/25 07:00:08;;;;;;;12.70;5.03;;;13.40;99.90;;;;;;4429145;28;658140;-72
2021/08/25 07:02:56;;;;;;;13.73;5.80;;;13.50;99.90;;;;;;4428872;28;658215;-72
2021/08/25 07:05:43;;;;;;;13.20;5.87;;;13.40;99.90;;;;;;4412297;28;657655;-71
2021/08/25 07:08:32;;;;;;;14.53;5.90;;;13.50;99.90;;;;;;4420623;28;658861;-72
2021/08/25 07:11:20;;;;;;;13.07;5.90;;;13.50;99.90;;;;;;4404046;28;658802;-71
2021/08/25 07:14:08;;;;;;;15.57;5.50;;;13.40;99.90;;;;;;4408278;28;658389;-72
2021/08/25 07:16:55;;;;;;;10.77;5.57;;;13.30;99.90;;;;;;4434210;28;657667;-71
2021/08/25 07:19:43;;;;;;;12.77;5.57;;;13.40;99.90;;;;;;4411905;28;657503;-71
2021/08/25 07:22:31;;;;;;;15.20;5.27;;;13.40;99.90;;;;;;4429383;28;658359;-71
2021/08/25 07:25:20;;;;;;;9.67;5.07;;;13.60;99.90;;;;;;4410577;28;657743;-70
2021/08/25 07:28:07;;;;;;;12.07;5.43;;;13.70;99.90;;;;;;4412938;28;656853;-71
2021/08/25 07:30:55;;;;;;;13.83;5.70;;;13.90;99.90;;;;;;4427928;28;659367;-71
2021/08/25 07:33:43;;;;;;;14.47;5.10;;;14.10;99.90;;;;;;4408741;28;657338;-71
2021/08/25 07:36:30;;;;;;;11.03;4.90;;;14.20;99.90;;;;;;4416022;28;658038;-72
2021/08/25 07:39:18;;;;;;;15.40;5.13;;;14.20;99.90;;;;;;4404462;28;658240;-71
2021/08/25 07:42:07;;;;;;;13.53;5.67;;;14.40;99.90;;;;;;4421658;28;657888;-71
2021/08/25 07:44:55;;;;;;;12.57;5.27;;;14.60;99.90;;;;;;4405498;28;658323;-71
2021/08/25 07:47:44;;;;;;;13.13;5.87;;;14.90;99.90;;;;;;4411195;28;657734;-71
2021/08/25 07:50:31;;;;;;;17.07;5.73;;;15.10;99.90;;;;;;4430409;28;657861;-72
2021/08/25 07:53:19;;;;;;;11.87;5.13;;;15.40;99.90;;;;;;4404774;28;658610;-72
2021/08/25 07:56:06;;;;;;;12.33;5.07;;;15.40;99.90;;;;;;4430486;28;657820;-71
2021/08/25 07:58:56;;;;;;;15.00;5.63;;;15.60;99.90;;;;;;4399237;28;659255;-71
2021/08/25 08:01:43;;;;;;;13.83;5.70;;;15.60;99.90;;;;;;4408445;28;658071;-71
2021/08/25 08:04:31;;;;;;;12.80;6.37;;;15.70;99.90;;;;;;4434113;28;657566;-70
2021/08/25 08:07:19;;;;;;;12.83;6.40;;;15.80;99.90;;;;;;4410854;28;658109;-70
2021/08/25 08:10:07;;;;;;;16.87;7.00;;;15.90;99.90;;;;;;4429573;28;658046;-71
2021/08/25 08:12:55;;;;;;;11.07;6.07;;;16.10;99.90;;;;;;4395472;28;658601;-71
2021/08/25 08:15:44;;;;;;;14.97;6.40;;;16.50;99.90;;;;;;4396142;28;657657;-71
2021/08/25 08:18:35;;;;;;;13.67;6.83;;;16.90;99.90;;;;;;4412766;28;658011;-70
2021/08/25 08:21:23;;;;;;;16.17;7.10;;;17.30;99.90;;;;;;4402287;28;657256;-70
2021/08/25 08:24:11;;;;;;;14.93;7.50;;;17.60;99.90;;;;;;4427307;28;658678;-71
2021/08/25 08:26:59;;;;;;;14.33;7.33;;;17.60;99.90;;;;;;4396428;28;658097;-71
2021/08/25 08:29:47;;;;;;;15.03;7.33;;;18.00;99.90;;;;;;4419939;28;657789;-72
2021/08/25 08:32:36;;;;;;;15.90;7.63;;;18.10;99.90;;;;;;4402936;28;658258;-72
2021/08/25 08:35:24;;;;;;;15.43;7.73;;;18.40;99.90;;;;;;4405957;28;658023;-71
2021/08/25 08:38:11;;;;;;;15.17;7.80;;;18.60;99.90;;;;;;4427889;28;658107;-71
2021/08/25 08:40:59;;;;;;;14.07;7.70;;;18.90;99.90;;;;;;4406431;28;658812;-71
2021/08/25 08:43:48;;;;;;;16.60;8.30;;;18.80;99.90;;;;;;4430485;28;657973;-70
2021/08/25 08:46:35;;;;;;;13.37;6.90;;;18.40;99.90;;;;;;4404465;28;658716;-70
2021/08/25 08:49:24;;;;;;;15.03;7.40;;;18.00;99.90;;;;;;4396754;28;658682;-71
2021/08/25 08:52:12;;;;;;;15.93;7.53;;;17.70;99.90;;;;;;4422204;28;657613;-70
2021/08/25 08:55:00;;;;;;;21.40;7.03;;;18.00;99.90;;;;;;4429725;28;658911;-71
2021/08/25 08:57:48;;;;;;;13.20;5.90;;;17.70;99.90;;;;;;4408246;28;657821;-70
2021/08/25 09:00:38;;;;;;;13.83;6.57;;;17.80;99.90;;;;;;4426899;28;658178;-71
2021/08/25 09:03:27;;;;;;;22.63;8.63;;;18.10;99.90;;;;;;4405482;28;658521;-71
2021/08/25 09:06:16;;;;;;;16.20;8.00;;;17.60;99.90;;;;;;4401197;28;658408;-71
2021/08/25 09:09:04;;;;;;;15.37;7.53;;;16.90;99.90;;;;;;4409355;28;658630;-70
2021/08/25 09:11:52;;;;;;;17.53;7.30;;;17.20;99.90;;;;;;4425547;28;657896;-71
2021/08/25 09:14:39;;;;;;;15.53;7.23;;;17.60;99.90;;;;;;4408264;28;659261;-70
2021/08/25 09:17:29;;;;;;;15.83;8.37;;;18.10;99.90;;;;;;4415776;28;657451;-70
2021/08/25 09:20:16;;;;;;;15.20;8.07;;;18.80;99.90;;;;;;4429263;28;657834;-70
2021/08/25 09:23:17;;;;;;;15.97;8.07;;;19.10;99.90;;;;;;4403754;28;658408;-71
2021/08/25 09:26:08;;;;;;;18.10;8.40;;;19.50;99.90;;;;;;4399063;28;657944;-70
2021/08/25 09:28:55;;;;;;;13.70;7.70;;;19.80;99.50;;;;;;4409342;28;658161;-71
2021/08/25 09:31:44;;;;;;;15.80;8.23;;;19.10;98.60;;;;;;4408368;28;657773;-70
2021/08/25 09:34:32;;;;;;;16.57;8.40;;;18.70;99.90;;;;;;4426221;28;657692;-70
2021/08/25 09:37:20;;;;;;;16.43;8.77;;;18.60;99.90;;;;;;4400330;28;658698;-71
2021/08/25 09:40:14;;;;;;;17.83;8.90;;;18.40;99.90;;;;;;4410477;28;657550;-69
2021/08/25 09:43:02;;;;;;;17.50;9.37;;;18.20;99.90;;;;;;4400332;28;657682;-70
2021/08/25 09:45:55;;;;;;;16.90;8.30;;;18.50;99.90;;;;;;4420523;28;658431;-70
2021/08/25 09:48:43;;;;;;;15.80;8.77;;;18.80;99.90;;;;;;4385075;28;657565;-70
2021/08/25 09:51:38;;;;;;;16.87;8.30;;;19.10;99.90;;;;;;4426730;28;658185;-71
2021/08/25 09:54:26;;;;;;;17.93;8.90;;;19.60;99.90;;;;;;4408619;28;657966;-71
2021/08/25 09:57:15;;;;;;;16.60;8.47;;;19.80;99.90;;;;;;4410853;28;657657;-70
2021/08/25 10:00:03;;;;;;;16.57;8.93;;;20.10;99.90;;;;;;4416177;28;657654;-70
2021/08/25 10:02:51;;;;;;;15.27;8.50;;;20.30;99.20;;;;;;4432382;28;657953;-72
2021/08/25 10:05:39;;;;;;;18.60;8.90;;;20.00;96.20;;;;;;4405613;28;658606;-70
2021/08/25 10:08:27;;;;;;;18.30;9.57;;;19.00;97.50;;;;;;4430188;28;657653;-71
2021/08/25 10:11:15;;;;;;;18.03;8.60;;;18.90;99.90;;;;;;4431496;28;658145;-70
2021/08/25 10:14:08;;;;;;;17.33;8.20;;;18.90;99.70;;;;;;4413405;28;657871;-70
2021/08/25 10:16:56;;;;;;;18.53;8.43;;;19.20;98.50;;;;;;4407448;28;658076;-71
2021/08/25 10:19:43;;;;;;;16.43;8.33;;;19.50;99.50;;;;;;4407999;28;657567;-70
2021/08/25 10:22:31;;;;;;;16.13;7.97;;;20.10;96.70;;;;;;4428225;28;657079;-70
2021/08/25 10:25:18;;;;;;;16.03;7.80;;;19.50;94.30;;;;;;4394004;28;657643;-70
2021/08/25 10:28:07;;;;;;;19.70;8.30;;;18.80;97.30;;;;;;4428890;28;657518;-70
2021/08/25 10:30:57;;;;;;;20.77;8.47;;;18.60;98.40;;;;;;4404930;28;658673;-72
2021/08/25 10:34:11;;;;;;;17.83;8.90;;;19.00;97.70;;;;;;4410468;28;658806;-71
2021/08/25 10:37:27;;;;;;;14.40;7.87;;;19.10;97.30;;;;;;4403267;28;657761;-71
2021/08/25 10:40:14;;;;;;;19.13;8.57;;;19.40;98.40;;;;;;4385261;28;657889;-70
2021/08/25 10:43:03;;;;;;;16.07;7.40;;;19.40;96.60;;;;;;4421297;28;657476;-69
2021/08/25 10:45:56;;;;;;;17.57;7.57;;;19.40;96.90;;;;;;4429832;28;658234;-71
2021/08/25 10:48:55;;;;;;;16.77;8.33;;;19.60;99.90;;;;;;4383053;28;658535;-70
2021/08/25 10:51:44;;;;;;;18.13;8.03;;;18.90;97.30;;;;;;4380000;28;657747;-70
2021/08/25 10:54:33;;;;;;;15.60;7.87;;;18.60;98.10;;;;;;4431892;28;657893;-71
2021/08/25 10:57:21;;;;;;;15.53;7.47;;;19.00;99.70;;;;;;4401859;28;658282;-71
2021/08/25 11:00:09;;;;;;;16.13;7.80;;;19.30;96.20;;;;;;4408259;28;657693;-71
2021/08/25 11:02:56;;;;;;;17.83;6.90;;;20.10;97.40;;;;;;4423939;28;657777;-71
2021/08/25 11:05:45;;;;;;;18.73;7.73;;;20.00;91.90;;;;;;4403372;28;658891;-70
2021/08/25 11:08:33;;;;;;;15.17;7.70;;;20.00;93.40;;;;;;4407571;28;657592;-71
2021/08/25 11:11:20;;;;;;;15.87;7.57;;;20.00;94.80;;;;;;4430605;28;658657;-71
2021/08/25 11:14:08;;;;;;;15.50;7.53;;;19.80;94.30;;;;;;4404759;28;657516;-70
2021/08/25 11:16:58;;;;;;;19.03;7.33;;;19.40;96.20;;;;;;4430776;28;658560;-71
2021/08/25 11:19:46;;;;;;;14.93;6.63;;;18.90;96.20;;;;;;4400786;28;657808;-71
2021/08/25 11:22:36;;;;;;;13.73;6.77;;;18.30;99.10;;;;;;4400732;28;658276;-70
2021/08/25 11:25:24;;;;;;;14.83;6.37;;;18.20;99.90;;;;;;4407992;28;658725;-71
2021/08/25 11:28:12;;;;;;;16.60;6.93;;;18.50;99.90;;;;;;4431610;28;658108;-71
2021/08/25 11:30:59;;;;;;;15.43;7.17;;;18.60;99.90;;;;;;4402528;28;658326;-71
2021/08/25 11:33:47;;;;;;;17.33;6.90;;;18.60;98.70;;;;;;4422960;28;658333;-70
2021/08/25 11:36:35;;;;;;;15.47;7.23;;;18.80;99.90;;;;;;4426288;28;657855;-71
2021/08/25 11:39:24;;;;;;;17.57;6.83;;;19.20;99.60;;;;;;4410154;28;657564;-71
2021/08/25 11:42:12;;;;;;;14.80;6.53;;;19.80;96.80;;;;;;4420699;28;657454;-71
2021/08/25 11:44:59;;;;;;;15.70;7.07;;;19.70;94.60;;;;;;4411097;28;658390;-71
2021/08/25 11:47:49;;;;;;;17.70;7.40;;;20.00;93.80;;;;;;4428112;28;657731;-70
2021/08/25 11:50:38;;;;;;;14.30;6.27;;;20.70;92.70;;;;;;4430213;28;658333;-72
2021/08/25 11:53:26;;;;;;;17.00;7.50;;;20.50;90.60;;;;;;4406190;28;658529;-72
2021/08/25 11:56:16;;;;;;;13.53;6.63;;;20.60;97.10;;;;;;4407871;28;658544;-71
2021/08/25 11:59:10;;;;;;;15.07;6.37;;;20.50;92.10;;;;;;4402755;28;658443;-71
2021/08/25 12:02:06;;;;;;;18.00;6.93;;;19.90;93.40;;;;;;4388695;28;658104;-70
2021/08/25 12:04:54;;;;;;;12.27;6.50;;;19.80;94.20;;;;;;4381108;28;658284;-72
2021/08/25 12:07:41;;;;;;;15.50;7.07;;;19.50;94.80;;;;;;4422402;28;659137;-71
2021/08/25 12:10:29;;;;;;;11.90;6.07;;;18.90;94.10;;;;;;4401622;28;658912;-71
2021/08/25 12:13:33;;;;;;;12.17;6.23;;;18.60;95.70;;;;;;4427083;28;657852;-72
2021/08/25 12:16:21;;;;;;;13.23;6.90;;;18.30;95.10;;;;;;4394095;28;658115;-72
2021/08/25 12:19:09;;;;;;;13.87;6.83;;;18.60;95.70;;;;;;4409458;28;659358;-71
2021/08/25 12:21:57;;;;;;;15.33;5.90;;;19.00;95.40;;;;;;4428744;28;657149;-71
2021/08/25 12:24:44;;;;;;;15.33;6.80;;;19.00;92.90;;;;;;4406425;28;658767;-72
2021/08/25 12:27:45;;;;;;;13.33;6.80;;;19.00;92.70;;;;;;4417564;28;657362;-69
2021/08/25 12:30:36;;;;;;;15.10;6.43;;;19.00;94.10;;;;;;4411145;28;657625;-69
2021/08/25 12:33:29;;;;;;;14.97;6.70;;;19.20;93.00;;;;;;4404963;28;658053;-72
2021/08/25 12:36:24;;;;;;;14.97;6.57;;;19.90;92.40;;;;;;4405793;28;657578;-71
2021/08/25 12:39:13;;;;;;;11.27;6.13;;;20.40;91.00;;;;;;4410011;28;657372;-71
2021/08/25 12:42:01;;;;;;;13.30;6.57;;;21.00;90.70;;;;;;4404993;28;658749;-71
2021/08/25 12:44:48;;;;;;;15.27;7.33;;;21.10;90.90;;;;;;4410370;28;657756;-71
2021/08/25 12:47:37;;;;;;;15.30;6.80;;;21.90;91.80;;;;;;4428810;28;658358;-72
2021/08/25 12:50:25;;;;;;;13.30;6.97;;;22.20;87.20;;;;;;4401310;28;658332;-71
2021/08/25 12:53:12;;;;;;;13.90;6.53;;;22.30;88.20;;;;;;4410169;28;657881;-70
2021/08/25 12:56:00;;;;;;;14.33;6.83;;;22.20;82.70;;;;;;4423488;28;658740;-71
2021/08/25 12:58:48;;;;;;;14.60;7.23;;;22.00;87.10;;;;;;4401851;28;658778;-71
2021/08/25 13:01:35;;;;;;;14.87;7.13;;;22.10;90.70;;;;;;4428584;28;658746;-71
2021/08/25 13:04:25;;;;;;;15.13;6.90;;;22.30;89.70;;;;;;4402774;28;657535;-69
2021/08/25 13:07:12;;;;;;;17.67;6.87;;;22.70;83.80;;;;;;4413769;28;657735;-70
2021/08/25 13:10:00;;;;;;;12.17;6.50;;;23.30;86.30;;;;;;4428478;28;658620;-71
2021/08/25 13:12:47;;;;;;;14.87;6.97;;;23.20;77.10;;;;;;4412868;28;657837;-70
2021/08/25 13:15:35;;;;;;;15.80;7.33;;;22.90;74.20;;;;;;4429543;28;659400;-71
2021/08/25 13:18:23;;;;;;;15.07;7.00;;;22.10;77.60;;;;;;4413590;28;657658;-70
2021/08/25 13:21:12;;;;;;;13.60;6.10;;;21.40;77.90;;;;;;4420837;28;658343;-71
2021/08/25 13:24:00;;;;;;;15.40;6.73;;;21.40;79.00;;;;;;4396271;28;659365;-72
2021/08/25 13:26:47;;;;;;;12.63;6.80;;;21.50;76.00;;;;;;4414013;28;657974;-69
2021/08/25 13:29:35;;;;;;;14.77;6.87;;;21.50;75.90;;;;;;4435526;28;658318;-71
2021/08/25 13:32:23;;;;;;;12.63;6.63;;;21.70;76.60;;;;;;4413520;28;657562;-70
2021/08/25 13:35:11;;;;;;;15.37;7.47;;;21.90;73.30;;;;;;4427290;28;657536;-71
2021/08/25 13:38:00;;;;;;;14.20;6.93;;;22.20;73.40;;;;;;4407630;28;657270;-71
2021/08/25 13:40:48;;;;;;;11.10;6.23;;;22.50;75.10;;;;;;4411308;28;657992;-71
2021/08/25 13:43:36;;;;;;;21.00;7.50;;;22.30;76.40;;;;;;4432101;28;658172;-71
2021/08/25 13:46:24;;;;;;;17.83;7.10;;;22.40;76.40;;;;;;4412396;28;657710;-71
2021/08/25 13:49:11;;;;;;;15.60;7.30;;;22.30;77.20;;;;;;4430917;28;657497;-72
2021/08/25 13:51:59;;;;;;;11.20;6.30;;;22.60;75.80;;;;;;4414432;28;658666;-71
2021/08/25 13:54:48;;;;;;;13.37;6.30;;;22.50;73.70;;;;;;4432375;28;658089;-72
2021/08/25 13:57:35;;;;;;;12.77;6.13;;;22.20;72.40;;;;;;4412646;28;658164;-70
2021/08/25 14:00:23;;;;;;;14.50;6.83;;;21.50;73.30;;;;;;4413121;28;657680;-71
2021/08/25 14:03:11;;;;;;;16.07;6.90;;;20.80;75.50;;;;;;4434805;28;658371;-71
2021/08/25 14:05:58;;;;;;;12.50;6.83;;;20.40;77.60;;;;;;4410142;28;657713;-71
2021/08/25 14:08:46;;;;;;;12.60;6.70;;;19.80;78.30;;;;;;4430085;28;657584;-71
2021/08/25 14:11:35;;;;;;;13.03;6.80;;;19.70;82.70;;;;;;4400194;28;657339;-71
2021/08/25 14:14:22;;;;;;;14.93;6.87;;;20.10;83.70;;;;;;4412411;28;657547;-70
2021/08/25 14:17:10;;;;;;;16.40;7.10;;;20.60;81.90;;;;;;4425617;28;658759;-71
2021/08/25 14:19:58;;;;;;;14.03;6.03;;;21.30;85.70;;;;;;4399975;28;658057;-71
2021/08/25 14:22:45;;;;;;;11.77;6.60;;;22.00;82.90;;;;;;4430476;28;657949;-72